Time;durP1;ratioP1;P1;durP2;ratioP2;P2;SDS_P1;SDS_P2;PMS_P1;PMS_P2;Temp;Humidity;BMP_temperature;BMP_pressure;BME280_temperature;BME280_humidity;BME280_pressure;Samples;Min_cycle;Max_cycle;Signal;HPM_P1;HPM_P2
2022/03/07 00:02:02;;;;;;;117.33;40.83;;;;;;;2.10;nan;-23874.47;4991902;28;20176;-70
2022/03/07 00:04:28;;;;;;;115.00;40.00;;;;;;;1.95;nan;-23870.31;4991868;28;20300;-71
2022/03/07 00:06:53;;;;;;;121.13;39.73;;;;;;;2.41;nan;-23883.31;4991543;28;20653;-71
2022/03/07 00:09:18;;;;;;;107.80;39.33;;;;;;;2.30;nan;-23880.03;4991931;28;20179;-70
2022/03/07 00:11:44;;;;;;;124.67;41.13;;;;;;;2.03;nan;-23872.59;4991125;28;20195;-72
2022/03/07 00:14:10;;;;;;;130.13;42.23;;;;;;;2.20;nan;-23877.31;4991914;28;20188;-72
2022/03/07 00:16:35;;;;;;;107.33;40.67;;;;;;;2.00;nan;-23871.59;4991930;28;20187;-73
2022/03/07 00:19:01;;;;;;;113.80;41.63;;;;;;;2.25;nan;-23878.59;4991539;28;20232;-73
2022/03/07 00:21:27;;;;;;;107.97;39.63;;;;;;;2.08;nan;-23874.03;4991882;28;20186;-72
2022/03/07 00:23:52;;;;;;;112.03;40.13;;;;;;;2.31;nan;-23880.47;4990747;28;20214;-72
2022/03/07 00:26:18;;;;;;;116.37;40.43;;;;;;;2.44;nan;-23884.03;4991896;28;20187;-72
2022/03/07 00:28:47;;;;;;;109.53;39.43;;;;;;;2.45;nan;-23884.44;4991964;28;20557;-75
2022/03/07 00:31:13;;;;;;;101.77;38.77;;;;;;;2.35;nan;-23881.47;4992819;28;20176;-71
2022/03/07 00:33:40;;;;;;;91.37;36.20;;;;;;;2.39;nan;-23882.75;4992433;28;20259;-69
2022/03/07 00:36:06;;;;;;;99.70;37.37;;;;;;;2.15;nan;-23876.03;4991837;28;20172;-70
2022/03/07 00:38:33;;;;;;;98.53;36.93;;;;;;;2.38;nan;-23882.44;4992611;28;20317;-70
2022/03/07 00:40:59;;;;;;;98.43;36.50;;;;;;;2.20;nan;-23877.47;4991966;28;20179;-70
2022/03/07 00:43:24;;;;;;;92.20;37.07;;;;;;;2.19;nan;-23877.03;4992086;28;20254;-71
2022/03/07 00:45:50;;;;;;;82.50;35.27;;;;;;;2.39;nan;-23882.59;4991971;28;20176;-72
2022/03/07 00:48:16;;;;;;;87.60;34.27;;;;;;;1.94;nan;-23869.88;4991204;28;20261;-72
2022/03/07 00:50:48;;;;;;;96.77;36.83;;;;;;;2.35;nan;-23881.59;4991474;28;20195;-72
2022/03/07 00:53:17;;;;;;;87.73;33.60;;;;;;;2.25;nan;-23878.59;4992091;28;20180;-71
2022/03/07 00:55:43;;;;;;;87.33;33.83;;;;;;;2.24;nan;-23878.47;4992009;28;20191;-72
2022/03/07 00:58:09;;;;;;;85.77;36.40;;;;;;;2.03;nan;-23872.47;4992052;28;20191;-72
2022/03/07 01:00:36;;;;;;;89.33;35.93;;;;;;;2.11;nan;-23874.75;4991378;28;20189;-71
2022/03/07 01:03:02;;;;;;;90.17;35.90;;;;;;;1.97;nan;-23870.75;4991684;28;20196;-72
2022/03/07 01:05:28;;;;;;;90.90;37.77;;;;;;;2.22;nan;-23878.03;4994942;28;20183;-72
2022/03/07 01:07:53;;;;;;;97.37;37.77;;;;;;;2.06;nan;-23873.31;4995166;28;20703;-73
2022/03/07 01:10:18;;;;;;;92.70;37.90;;;;;;;2.35;nan;-23881.47;4995232;28;20178;-72
2022/03/07 01:12:44;;;;;;;101.37;38.63;;;;;;;1.87;nan;-23868.03;4995808;28;20295;-71
2022/03/07 01:15:10;;;;;;;105.47;40.07;;;;;;;1.99;nan;-23871.47;4995287;28;20247;-70
2022/03/07 01:17:36;;;;;;;96.63;39.13;;;;;;;2.29;nan;-23879.75;4993760;28;20205;-71
2022/03/07 01:20:05;;;;;;;103.03;40.53;;;;;;;1.85;nan;-23867.31;4995070;28;20175;-72
2022/03/07 01:22:30;;;;;;;96.80;39.30;;;;;;;1.89;nan;-23868.47;4995529;28;20225;-70
2022/03/07 01:24:56;;;;;;;102.30;39.13;;;;;;;1.95;nan;-23870.31;4994406;28;20266;-71
2022/03/07 01:27:21;;;;;;;99.87;38.83;;;;;;;2.04;nan;-23872.88;4994944;28;20685;-72
2022/03/07 01:29:47;;;;;;;109.17;39.60;;;;;;;2.01;nan;-23871.88;4994686;28;20198;-71
2022/03/07 01:32:12;;;;;;;99.40;37.73;;;;;;;1.89;nan;-23868.59;4994797;28;20176;-72
2022/03/07 01:34:38;;;;;;;96.03;34.77;;;;;;;1.76;nan;-23865.03;4994669;28;20180;-71
2022/03/07 01:37:03;;;;;;;90.67;35.67;;;;;;;1.86;nan;-23867.59;4994840;28;20184;-70
2022/03/07 01:39:29;;;;;;;84.70;34.40;;;;;;;2.22;nan;-23878.03;4995362;28;20194;-72
2022/03/07 01:41:54;;;;;;;92.43;35.80;;;;;;;2.12;nan;-23875.16;4994443;28;20703;-69
2022/03/07 01:44:23;;;;;;;99.67;35.13;;;;;;;1.63;nan;-23861.31;4995033;28;20245;-72
2022/03/07 01:46:49;;;;;;;89.80;34.30;;;;;;;2.11;nan;-23874.75;4993301;28;20180;-70
2022/03/07 01:49:15;;;;;;;87.87;34.13;;;;;;;1.74;nan;-23864.47;4994545;28;20237;-71
2022/03/07 01:51:45;;;;;;;86.40;33.43;;;;;;;2.21;nan;-23877.75;4994641;28;20184;-70
2022/03/07 01:54:14;;;;;;;88.03;33.07;;;;;;;2.18;nan;-23876.75;4994698;28;20214;-71
2022/03/07 01:56:42;;;;;;;84.80;35.00;;;;;;;2.28;nan;-23879.44;4994378;28;20619;-71
2022/03/07 01:59:11;;;;;;;72.73;30.23;;;;;;;2.02;nan;-23872.16;4994493;28;20179;-70
2022/03/07 02:01:37;;;;;;;76.10;30.30;;;;;;;1.80;nan;-23865.88;4993337;28;20188;-72
2022/03/07 02:04:02;;;;;;;71.40;29.63;;;;;;;2.36;nan;-23881.75;4994381;28;20238;-71
2022/03/07 02:06:28;;;;;;;76.73;29.33;;;;;;;1.92;nan;-23869.31;4994457;28;20598;-71
2022/03/07 02:08:55;;;;;;;69.77;29.27;;;;;;;2.07;nan;-23873.75;4994557;28;20180;-70
2022/03/07 02:11:21;;;;;;;68.40;29.20;;;;;;;2.49;nan;-23885.44;4994289;28;20171;-70
2022/03/07 02:13:46;;;;;;;69.20;27.73;;;;;;;2.06;nan;-23873.31;4994330;28;20171;-72
2022/03/07 02:16:14;;;;;;;63.83;27.33;;;;;;;1.90;nan;-23868.88;4993595;28;20207;-71
2022/03/07 02:18:40;;;;;;;63.77;28.33;;;;;;;2.47;nan;-23885.03;4994124;28;20180;-72
2022/03/07 02:21:14;;;;;;;71.67;30.17;;;;;;;1.93;nan;-23869.75;4994429;28;20677;-71
2022/03/07 02:23:40;;;;;;;63.90;28.07;;;;;;;2.06;nan;-23873.31;4993973;28;20333;-70
2022/03/07 02:26:16;;;;;;;75.77;30.07;;;;;;;2.59;nan;-23888.31;4994026;28;20186;-71
2022/03/07 02:28:44;;;;;;;79.20;33.17;;;;;;;2.37;nan;-23882.16;4993767;28;20564;-70
2022/03/07 02:31:10;;;;;;;71.63;30.80;;;;;;;2.71;nan;-23891.59;4993874;28;20203;-72
2022/03/07 02:33:36;;;;;;;69.33;29.33;;;;;;;2.72;nan;-23891.88;4993952;28;20187;-71
2022/03/07 02:36:03;;;;;;;74.63;31.00;;;;;;;2.73;nan;-23892.16;4993716;28;20560;-71
2022/03/07 02:38:28;;;;;;;70.67;29.10;;;;;;;2.30;nan;-23880.03;4992749;28;20184;-70
2022/03/07 02:40:54;;;;;;;80.83;30.90;;;;;;;2.70;nan;-23891.31;4993496;28;20212;-71
2022/03/07 02:43:20;;;;;;;74.00;31.17;;;;;;;2.21;nan;-23877.59;4993501;28;20207;-72
2022/03/07 02:45:46;;;;;;;76.97;28.93;;;;;;;2.07;nan;-23873.75;4993927;28;20240;-72
2022/03/07 02:48:11;;;;;;;76.00;30.20;;;;;;;2.19;nan;-23877.03;4993946;28;20564;-72
2022/03/07 02:50:37;;;;;;;72.40;30.47;;;;;;;2.71;nan;-23891.59;4993654;28;20254;-71
2022/03/07 02:53:03;;;;;;;80.43;31.53;;;;;;;2.40;nan;-23883.03;4992400;28;20212;-71
2022/03/07 02:55:28;;;;;;;81.00;32.20;;;;;;;2.54;nan;-23887.03;4991914;28;20698;-70
2022/03/07 02:57:54;;;;;;;78.47;32.60;;;;;;;2.80;nan;-23894.31;4993159;28;20662;-72
2022/03/07 03:00:19;;;;;;;70.83;31.67;;;;;;;2.60;nan;-23888.59;4992387;28;20187;-71
2022/03/07 03:02:44;;;;;;;71.77;30.90;;;;;;;2.88;nan;-23896.44;4993771;28;20185;-72
2022/03/07 03:05:10;;;;;;;78.67;29.80;;;;;;;2.82;nan;-23894.88;4993192;28;20195;-72
2022/03/07 03:07:35;;;;;;;76.40;31.00;;;;;;;2.56;nan;-23887.59;4993088;28;20180;-72
2022/03/07 03:10:01;;;;;;;83.77;31.67;;;;;;;2.64;nan;-23889.88;4993198;28;20216;-70
2022/03/07 03:12:27;;;;;;;83.07;32.20;;;;;;;2.65;nan;-23890.00;4993255;28;20555;-70
2022/03/07 03:14:53;;;;;;;80.43;30.50;;;;;;;2.11;nan;-23874.75;4992561;28;20196;-71
2022/03/07 03:17:20;;;;;;;82.80;32.77;;;;;;;2.48;nan;-23885.31;4992759;28;20292;-70
2022/03/07 03:19:45;;;;;;;84.23;30.77;;;;;;;2.54;nan;-23886.88;4992837;28;20192;-71
2022/03/07 03:22:10;;;;;;;71.23;29.63;;;;;;;2.50;nan;-23885.88;4993187;28;20250;-71
2022/03/07 03:24:37;;;;;;;69.27;28.87;;;;;;;2.38;nan;-23882.44;4991375;28;20266;-71
2022/03/07 03:27:04;;;;;;;69.73;28.83;;;;;;;2.65;nan;-23890.16;4991672;28;20234;-71
2022/03/07 03:29:29;;;;;;;67.53;27.77;;;;;;;2.55;nan;-23887.31;4992439;28;20172;-69
2022/03/07 03:31:55;;;;;;;59.73;26.97;;;;;;;2.82;nan;-23894.72;4992360;28;20608;-71
2022/03/07 03:34:20;;;;;;;64.60;28.60;;;;;;;2.64;nan;-23889.72;4992432;28;20172;-70
2022/03/07 03:36:46;;;;;;;57.20;25.67;;;;;;;2.21;nan;-23877.59;4992271;28;20179;-71
2022/03/07 03:39:11;;;;;;;54.13;24.93;;;;;;;2.64;nan;-23889.88;4992734;28;20628;-68
2022/03/07 03:41:37;;;;;;;59.83;27.87;;;;;;;2.73;nan;-23892.16;4991705;28;20293;-71
2022/03/07 03:44:03;;;;;;;58.93;25.63;;;;;;;1.51;nan;-23857.75;4992049;28;20212;-71
2022/03/07 03:46:28;;;;;;;51.50;23.80;;;;;;;2.70;nan;-23891.44;4991897;28;20658;-71
2022/03/07 03:48:54;;;;;;;49.67;23.90;;;;;;;2.29;nan;-23879.75;4992251;28;20183;-72
2022/03/07 03:51:19;;;;;;;54.17;24.60;;;;;;;2.65;nan;-23890.00;4991915;28;20184;-71
2022/03/07 03:53:44;;;;;;;57.13;24.50;;;;;;;2.28;nan;-23879.59;4991994;28;20184;-70
2022/03/07 03:56:10;;;;;;;43.93;22.77;;;;;;;1.76;nan;-23865.03;4990570;28;20177;-70
2022/03/07 03:58:35;;;;;;;46.17;22.23;;;;;;;2.26;nan;-23878.88;4992008;28;20273;-70
2022/03/07 04:01:01;;;;;;;48.17;23.77;;;;;;;2.45;nan;-23884.31;4992527;28;20172;-71
2022/03/07 04:03:27;;;;;;;49.90;24.97;;;;;;;2.57;nan;-23887.72;4992062;28;20231;-70
2022/03/07 04:05:52;;;;;;;56.50;27.60;;;;;;;2.83;nan;-23895.16;4992520;28;20243;-72
2022/03/07 04:08:18;;;;;;;52.80;25.87;;;;;;;2.83;nan;-23895.16;4992141;28;20183;-72
2022/03/07 04:10:44;;;;;;;51.83;24.07;;;;;;;2.89;nan;-23896.88;4992285;28;20213;-70
2022/03/07 04:13:09;;;;;;;47.97;25.10;;;;;;;2.57;nan;-23887.72;4991826;28;20180;-70
2022/03/07 04:15:38;;;;;;;49.37;24.43;;;;;;;2.56;nan;-23887.44;4992388;28;20250;-70
2022/03/07 04:18:05;;;;;;;50.17;26.40;;;;;;;2.22;nan;-23877.88;4991285;28;20261;-71
2022/03/07 04:20:31;;;;;;;46.97;24.47;;;;;;;2.53;nan;-23886.59;4985191;28;20184;-72
2022/03/07 04:22:57;;;;;;;56.03;26.63;;;;;;;2.40;nan;-23883.03;4985738;28;20205;-72
2022/03/07 04:25:23;;;;;;;54.90;25.77;;;;;;;2.49;nan;-23885.59;4984288;28;20180;-69
2022/03/07 04:27:48;;;;;;;45.30;23.63;;;;;;;2.43;nan;-23883.88;4983942;28;20191;-70
2022/03/07 04:30:14;;;;;;;48.00;23.47;;;;;;;2.41;nan;-23883.31;4984819;28;20667;-72
2022/03/07 04:32:39;;;;;;;47.73;22.37;;;;;;;2.68;nan;-23890.88;4983632;28;20184;-72
2022/03/07 04:35:06;;;;;;;47.37;22.43;;;;;;;2.86;nan;-23895.88;4985572;28;20271;-71
2022/03/07 04:37:33;;;;;;;52.80;22.70;;;;;;;2.83;nan;-23895.00;4985522;28;20195;-71
2022/03/07 04:40:00;;;;;;;50.30;23.60;;;;;;;2.38;nan;-23882.44;4989712;28;20185;-73
2022/03/07 04:42:25;;;;;;;43.97;19.50;;;;;;;2.90;nan;-23897.16;4990200;28;20224;-73
2022/03/07 04:44:51;;;;;;;49.57;22.60;;;;;;;2.66;nan;-23890.44;4977240;28;21089;-71
2022/03/07 04:47:16;;;;;;;58.53;25.23;;;;;;;2.97;nan;-23899.16;4988143;28;20173;-71
2022/03/07 04:49:42;;;;;;;55.97;24.87;;;;;;;2.77;nan;-23893.31;4989339;28;20279;-71
2022/03/07 04:52:07;;;;;;;56.67;25.67;;;;;;;2.42;nan;-23883.44;4988379;28;20212;-69
2022/03/07 04:54:33;;;;;;;59.30;26.17;;;;;;;2.44;nan;-23884.16;4989207;28;20173;-71
2022/03/07 04:56:58;;;;;;;62.70;25.30;;;;;;;2.67;nan;-23890.59;4988255;28;22503;-72
2022/03/07 04:59:24;;;;;;;61.07;26.47;;;;;;;3.02;nan;-23900.56;4987528;28;20188;-71
2022/03/07 05:01:49;;;;;;;59.37;25.73;;;;;;;2.95;nan;-23898.59;5002850;28;20209;-69
2022/03/07 05:04:14;;;;;;;52.30;23.23;;;;;;;1.53;nan;-23858.44;4988787;28;20299;-71
2022/03/07 05:06:40;;;;;;;57.40;23.57;;;;;;;2.87;nan;-23896.28;4985538;28;20637;-72
2022/03/07 05:09:05;;;;;;;53.77;24.10;;;;;;;2.82;nan;-23894.88;4987182;28;20196;-71
2022/03/07 05:11:31;;;;;;;52.63;25.93;;;;;;;2.32;nan;-23880.75;4987762;28;20200;-70
2022/03/07 05:13:56;;;;;;;59.80;27.40;;;;;;;2.36;nan;-23881.75;4988205;28;20207;-71
2022/03/07 05:16:22;;;;;;;65.30;31.07;;;;;;;2.37;nan;-23882.16;4986579;28;20198;-71
2022/03/07 05:18:49;;;;;;;61.57;29.03;;;;;;;2.74;nan;-23892.59;4995349;28;20648;-72
2022/03/07 05:21:14;;;;;;;62.90;27.93;;;;;;;2.51;nan;-23886.03;4979314;28;20581;-72
2022/03/07 05:23:40;;;;;;;59.33;26.83;;;;;;;2.48;nan;-23885.31;4993452;28;20204;-71
2022/03/07 05:26:05;;;;;;;61.97;26.57;;;;;;;2.54;nan;-23887.03;4994412;28;20723;-72
2022/03/07 05:28:31;;;;;;;69.03;28.43;;;;;;;2.42;nan;-23883.59;4994616;28;20181;-72
2022/03/07 05:30:56;;;;;;;63.67;26.73;;;;;;;2.07;nan;-23873.59;4994472;28;20208;-72
2022/03/07 05:33:22;;;;;;;71.67;27.70;;;;;;;2.63;nan;-23889.44;4994591;28;20181;-74
2022/03/07 05:35:47;;;;;;;62.17;27.67;;;;;;;2.57;nan;-23887.72;4994106;28;20222;-72
2022/03/07 05:38:12;;;;;;;64.07;27.50;;;;;;;2.62;nan;-23889.31;4994668;28;20183;-71
2022/03/07 05:40:40;;;;;;;66.83;27.23;;;;;;;2.34;nan;-23881.31;4994366;28;20341;-73
2022/03/07 05:43:12;;;;;;;67.57;31.30;;;;;;;2.98;nan;-23899.28;4994876;28;20239;-73
2022/03/07 05:45:38;;;;;;;62.97;27.17;;;;;;;2.53;nan;-23886.75;4993943;28;20181;-78
2022/03/07 05:48:05;;;;;;;58.87;26.03;;;;;;;3.13;nan;-23903.56;4994319;28;20184;-71
2022/03/07 05:50:30;;;;;;;65.90;27.47;;;;;;;3.04;nan;-23901.00;4993479;28;20169;-72
2022/03/07 05:52:56;;;;;;;64.40;28.20;;;;;;;2.80;nan;-23894.31;4993976;28;20234;-70
2022/03/07 05:55:21;;;;;;;59.83;25.90;;;;;;;3.09;nan;-23902.56;4994660;28;20531;-72
2022/03/07 05:57:47;;;;;;;67.33;28.20;;;;;;;2.02;nan;-23872.16;4994026;28;20172;-73
2022/03/07 06:00:13;;;;;;;56.93;25.70;;;;;;;2.55;nan;-23887.31;4994156;28;20180;-72
2022/03/07 06:02:39;;;;;;;61.33;26.67;;;;;;;3.37;nan;-23910.41;4992934;28;20177;-71
2022/03/07 06:05:05;;;;;;;60.50;25.33;;;;;;;3.34;nan;-23909.56;4994344;28;20161;-73
2022/03/07 06:07:31;;;;;;;54.93;24.87;;;;;;;3.01;nan;-23900.16;4993897;28;20176;-73
2022/03/07 06:09:56;;;;;;;64.50;26.93;;;;;;;2.82;nan;-23894.72;4993324;28;20529;-73
2022/03/07 06:12:21;;;;;;;55.20;24.63;;;;;;;2.78;nan;-23893.59;4993440;28;20187;-72
2022/03/07 06:14:47;;;;;;;61.43;24.97;;;;;;;3.41;nan;-23911.41;4992814;28;20647;-72
2022/03/07 06:17:12;;;;;;;52.37;24.47;;;;;;;3.44;nan;-23912.41;4994269;28;20176;-75
2022/03/07 06:19:38;;;;;;;52.90;23.00;;;;;;;3.45;nan;-23912.69;4993895;28;20177;-74
2022/03/07 06:22:03;;;;;;;51.90;23.87;;;;;;;3.63;nan;-23917.53;4994013;28;20185;-72
2022/03/07 06:24:29;;;;;;;42.80;22.10;;;;;;;3.45;nan;-23912.56;4993547;28;20228;-73
2022/03/07 06:26:56;;;;;;;43.17;22.50;;;;;;;3.36;nan;-23910.00;4990769;28;20258;-74
2022/03/07 06:29:22;;;;;;;43.53;21.63;;;;;;;3.42;nan;-23911.84;4992495;28;20574;-74
2022/03/07 06:31:48;;;;;;;49.57;22.43;;;;;;;4.01;nan;-23928.38;4992816;28;20310;-73
2022/03/07 06:34:13;;;;;;;45.13;22.47;;;;;;;3.65;nan;-23918.13;4992872;28;20185;-72
2022/03/07 06:36:39;;;;;;;45.70;23.17;;;;;;;4.11;nan;-23931.22;4992730;28;20528;-74
2022/03/07 06:39:06;;;;;;;51.57;24.00;;;;;;;3.85;nan;-23923.81;4992990;28;20284;-72
2022/03/07 06:41:31;;;;;;;41.13;23.10;;;;;;;3.51;nan;-23914.41;4993025;28;20251;-76
2022/03/07 06:43:57;;;;;;;47.17;24.03;;;;;;;3.94;nan;-23926.38;4992851;28;20204;-77
2022/03/07 06:46:22;;;;;;;55.07;27.40;;;;;;;4.15;nan;-23932.22;4993103;28;20264;-74
2022/03/07 06:48:47;;;;;;;54.43;27.67;;;;;;;3.94;nan;-23926.38;4992929;28;20538;-74
2022/03/07 06:51:13;;;;;;;58.73;28.60;;;;;;;3.86;nan;-23924.25;4992377;28;20177;-74
2022/03/07 06:53:38;;;;;;;51.93;27.43;;;;;;;3.93;nan;-23926.09;4992735;28;20564;-75
2022/03/07 06:56:04;;;;;;;53.87;27.47;;;;;;;4.19;nan;-23933.50;4992625;28;20206;-75
2022/03/07 06:58:29;;;;;;;53.20;26.90;;;;;;;4.21;nan;-23934.06;4992281;28;20184;-73
2022/03/07 07:00:55;;;;;;;48.50;26.03;;;;;;;3.79;nan;-23922.25;4992186;28;20632;-72
2022/03/07 07:03:20;;;;;;;48.50;24.70;;;;;;;4.18;nan;-23933.22;4992200;28;21023;-71
2022/03/07 07:05:46;;;;;;;46.37;23.60;;;;;;;4.35;nan;-23938.06;4992143;28;20192;-71
2022/03/07 07:08:11;;;;;;;42.33;22.20;;;;;;;4.51;nan;-23942.31;4992644;28;20184;-72
2022/03/07 07:10:38;;;;;;;45.40;24.23;;;;;;;4.71;nan;-23948.03;4992446;28;20188;-74
2022/03/07 07:13:03;;;;;;;44.60;24.07;;;;;;;4.14;nan;-23932.06;4992113;28;20537;-74
2022/03/07 07:15:29;;;;;;;42.30;23.20;;;;;;;4.19;nan;-23933.34;4992406;28;20183;-74
2022/03/07 07:17:54;;;;;;;45.20;24.17;;;;;;;4.44;nan;-23940.47;4992185;28;20461;-73
2022/03/07 07:20:19;;;;;;;63.50;31.97;;;;;;;4.58;nan;-23944.31;4991784;28;20666;-74
2022/03/07 07:22:45;;;;;;;57.93;30.90;;;;;;;4.95;nan;-23954.72;4990808;28;20599;-74
2022/03/07 07:25:11;;;;;;;62.10;32.53;;;;;;;5.20;nan;-23961.97;4992156;28;20176;-75
2022/03/07 07:27:37;;;;;;;61.77;32.90;;;;;;;5.13;nan;-23959.81;4992200;28;20177;-75
2022/03/07 07:30:07;;;;;;;69.93;33.50;;;;;;;5.48;nan;-23969.78;4992587;28;20647;-74
2022/03/07 07:32:32;;;;;;;67.63;34.73;;;;;;;5.48;nan;-23969.63;4992521;28;20561;-74
2022/03/07 07:34:58;;;;;;;62.37;32.30;;;;;;;5.66;nan;-23974.91;4992021;28;20181;-73
2022/03/07 07:37:23;;;;;;;63.07;31.40;;;;;;;5.80;nan;-23978.72;4992527;28;20177;-75
2022/03/07 07:39:49;;;;;;;62.33;31.80;;;;;;;5.64;nan;-23974.19;5006615;28;20212;-75
2022/03/07 07:42:14;;;;;;;69.07;34.27;;;;;;;5.53;nan;-23971.19;4991573;28;20236;-74
2022/03/07 07:44:40;;;;;;;65.67;31.90;;;;;;;4.91;nan;-23953.72;4992363;28;20204;-74
2022/03/07 07:47:07;;;;;;;64.47;31.27;;;;;;;5.98;nan;-23983.72;4992338;28;20195;-74
2022/03/07 07:49:33;;;;;;;53.37;25.77;;;;;;;5.94;nan;-23982.56;4991489;28;20185;-77
2022/03/07 07:51:59;;;;;;;47.97;24.63;;;;;;;5.53;nan;-23971.06;4991207;28;20192;-75
2022/03/07 07:54:24;;;;;;;58.87;28.93;;;;;;;5.54;nan;-23971.34;4992095;28;20614;-73
2022/03/07 07:56:50;;;;;;;53.07;27.03;;;;;;;5.73;nan;-23976.88;4991709;28;20173;-74
2022/03/07 07:59:16;;;;;;;48.83;24.33;;;;;;;5.69;nan;-23975.59;4991687;28;20223;-76
2022/03/07 08:01:42;;;;;;;46.97;22.13;;;;;;;6.04;nan;-23985.56;4990675;28;20268;-76
2022/03/07 08:04:07;;;;;;;47.13;23.53;;;;;;;6.06;nan;-23985.97;4990401;28;20366;-75
2022/03/07 08:06:32;;;;;;;43.70;21.53;;;;;;;5.63;nan;-23973.91;4991686;28;20272;-74
2022/03/07 08:08:58;;;;;;;43.13;21.90;;;;;;;5.74;nan;-23977.16;4991587;28;20256;-76
2022/03/07 08:11:24;;;;;;;38.97;20.77;;;;;;;5.87;nan;-23980.72;4991756;28;20173;-74
2022/03/07 08:13:49;;;;;;;36.17;19.13;;;;;;;5.59;nan;-23972.75;4991243;28;20557;-77
2022/03/07 08:16:17;;;;;;;35.33;19.23;;;;;;;5.73;nan;-23976.75;4991650;28;20184;-77
2022/03/07 08:18:42;;;;;;;40.17;20.87;;;;;;;5.66;nan;-23974.75;4991485;28;20181;-76
2022/03/07 08:21:08;;;;;;;41.33;21.23;;;;;;;6.09;nan;-23986.97;4991333;28;20550;-76
2022/03/07 08:23:33;;;;;;;38.50;19.70;;;;;;;6.22;nan;-23990.53;4991795;28;20200;-75
2022/03/07 08:25:59;;;;;;;38.53;20.70;;;;;;;6.55;nan;-23999.91;4991619;28;20176;-75
2022/03/07 08:28:24;;;;;;;33.13;18.60;;;;;;;6.29;nan;-23992.50;4989976;28;20177;-77
2022/03/07 08:30:50;;;;;;;38.00;18.77;;;;;;;6.53;nan;-23999.19;4989229;28;20176;-75
2022/03/07 08:33:15;;;;;;;34.57;18.13;;;;;;;6.19;nan;-23989.81;4991537;28;20644;-76
2022/03/07 08:35:41;;;;;;;34.03;18.73;;;;;;;5.89;nan;-23981.28;4991690;28;20177;-74
2022/03/07 08:38:06;;;;;;;34.30;17.57;;;;;;;6.29;nan;-23992.38;4991882;28;20619;-75
2022/03/07 08:40:32;;;;;;;35.97;18.90;;;;;;;6.26;nan;-23991.66;4992067;28;20251;-74
2022/03/07 08:42:57;;;;;;;33.10;17.77;;;;;;;5.95;nan;-23983.00;4991816;28;20229;-74
2022/03/07 08:45:25;;;;;;;31.23;16.90;;;;;;;6.16;nan;-23988.81;4991782;28;20260;-75
2022/03/07 08:47:51;;;;;;;33.43;18.53;;;;;;;5.88;nan;-23981.00;4990192;28;20177;-76
2022/03/07 08:50:18;;;;;;;34.37;18.20;;;;;;;5.85;nan;-23980.00;4990353;28;20184;-76
2022/03/07 08:52:44;;;;;;;36.13;19.90;;;;;;;5.91;nan;-23981.72;4991636;28;20165;-74
2022/03/07 08:55:10;;;;;;;42.83;21.17;;;;;;;5.95;nan;-23982.84;4991145;28;20204;-74
2022/03/07 08:57:36;;;;;;;37.57;18.33;;;;;;;5.66;nan;-23974.75;4989814;28;20193;-74
2022/03/07 09:00:05;;;;;;;37.87;18.10;;;;;;;5.98;nan;-23983.72;4991911;28;20235;-74
2022/03/07 09:02:30;;;;;;;35.33;18.43;;;;;;;5.81;nan;-23979.00;4991834;28;20686;-73
2022/03/07 09:04:56;;;;;;;32.13;17.03;;;;;;;6.02;nan;-23984.97;4991556;28;20204;-74
2022/03/07 09:07:21;;;;;;;34.97;18.30;;;;;;;5.54;nan;-23971.47;4991329;28;20330;-77
2022/03/07 09:09:47;;;;;;;31.00;16.77;;;;;;;5.44;nan;-23968.63;4989888;28;20195;-76
2022/03/07 09:12:13;;;;;;;29.77;16.00;;;;;;;5.74;nan;-23977.16;4990979;28;20264;-77
2022/03/07 09:14:38;;;;;;;28.57;16.50;;;;;;;5.40;nan;-23967.50;4991220;28;20215;-73
2022/03/07 09:17:04;;;;;;;35.37;17.23;;;;;;;5.84;nan;-23979.88;4991324;28;20191;-74
2022/03/07 09:19:29;;;;;;;36.50;18.70;;;;;;;5.63;nan;-23974.03;4991523;28;20188;-76
2022/03/07 09:21:55;;;;;;;34.63;18.10;;;;;;;5.94;nan;-23982.56;4991487;28;20226;-75
2022/03/07 09:24:22;;;;;;;33.50;17.50;;;;;;;5.79;nan;-23978.44;4991156;28;20208;-74
2022/03/07 09:26:47;;;;;;;30.57;16.63;;;;;;;6.02;nan;-23984.97;4995069;28;20215;-74
2022/03/07 09:29:13;;;;;;;31.33;17.00;;;;;;;6.41;nan;-23995.91;4994732;28;20200;-75
2022/03/07 09:31:39;;;;;;;30.93;16.80;;;;;;;5.89;nan;-23981.28;4994554;28;20532;-76
2022/03/07 09:34:05;;;;;;;30.03;16.40;;;;;;;6.37;nan;-23994.78;4994787;28;20632;-75
2022/03/07 09:36:31;;;;;;;30.57;16.03;;;;;;;6.48;nan;-23997.75;4995003;28;20187;-74
2022/03/07 09:38:56;;;;;;;28.47;15.93;;;;;;;6.51;nan;-23998.75;4993532;28;20177;-75
2022/03/07 09:41:22;;;;;;;33.27;18.20;;;;;;;6.74;nan;-24005.16;4995133;28;20273;-76
2022/03/07 09:43:48;;;;;;;37.30;17.67;;;;;;;6.54;nan;-23999.63;4994595;28;20209;-76
2022/03/07 09:46:15;;;;;;;34.63;17.67;;;;;;;6.19;nan;-23989.81;4994468;28;20173;-74
2022/03/07 09:48:44;;;;;;;32.53;17.70;;;;;;;6.14;nan;-23988.25;4994754;28;20176;-73
2022/03/07 09:51:10;;;;;;;38.67;19.07;;;;;;;6.69;nan;-24003.59;4994711;28;20184;-75
2022/03/07 09:53:35;;;;;;;34.70;18.60;;;;;;;6.97;nan;-24011.66;4994038;28;20184;-76
2022/03/07 09:56:01;;;;;;;33.70;18.10;;;;;;;6.62;nan;-24001.88;4994110;28;20544;-74
2022/03/07 09:58:26;;;;;;;37.23;18.73;;;;;;;7.38;nan;-24023.00;4994184;28;20177;-77
2022/03/07 10:00:52;;;;;;;36.50;19.03;;;;;;;7.24;nan;-24019.19;4994327;28;20187;-74
2022/03/07 10:03:20;;;;;;;32.37;18.40;;;;;;;7.18;nan;-24017.47;4994293;28;20280;-74
2022/03/07 10:05:48;;;;;;;34.43;18.33;;;;;;;7.54;nan;-24027.69;4994149;28;20173;-74
2022/03/07 10:08:27;;;;;;;32.57;17.30;;;;;;;7.58;nan;-24028.69;4993627;28;20165;-76
2022/03/07 10:10:54;;;;;;;32.60;17.10;;;;;;;7.17;nan;-24017.06;4993473;28;20192;-77
2022/03/07 10:13:21;;;;;;;33.57;16.90;;;;;;;7.06;nan;-24014.22;4994067;28;20269;-76
2022/03/07 10:16:03;;;;;;;33.17;17.90;;;;;;;6.90;nan;-24009.69;4994365;28;20177;-76
2022/03/07 10:18:29;;;;;;;31.33;16.30;;;;;;;7.48;nan;-24026.00;4992877;28;20227;-74
2022/03/07 10:20:58;;;;;;;28.97;16.53;;;;;;;6.74;nan;-24005.16;4993773;28;20184;-75
2022/03/07 10:23:25;;;;;;;31.50;16.93;;;;;;;6.81;nan;-24007.00;4994502;28;20209;-75
2022/03/07 10:25:52;;;;;;;32.47;17.13;;;;;;;6.65;nan;-24002.59;4993484;28;20173;-75
2022/03/07 10:28:18;;;;;;;36.73;18.83;;;;;;;6.39;nan;-23995.34;4993822;28;20189;-73
2022/03/07 10:30:44;;;;;;;35.43;18.60;;;;;;;6.25;nan;-23991.38;4993895;28;20227;-77
2022/03/07 10:33:13;;;;;;;38.43;18.83;;;;;;;6.60;nan;-24001.31;4992588;28;20193;-76
2022/03/07 10:35:43;;;;;;;30.53;16.67;;;;;;;6.25;nan;-23991.38;4992781;28;20199;-74
2022/03/07 10:38:16;;;;;;;34.57;16.90;;;;;;;6.40;nan;-23995.63;4992371;28;20459;-75
2022/03/07 10:40:47;;;;;;;29.57;15.97;;;;;;;5.78;nan;-23978.16;4992260;28;20212;-74
2022/03/07 10:43:13;;;;;;;33.40;17.53;;;;;;;6.35;nan;-23994.06;5023460;28;20229;-77
2022/03/07 10:45:49;;;;;;;32.63;17.47;;;;;;;6.28;nan;-23992.09;4992421;28;20726;-74
2022/03/07 10:48:16;;;;;;;34.57;17.77;;;;;;;6.51;nan;-23998.63;4992186;28;20187;-74
2022/03/07 10:50:51;;;;;;;30.87;16.20;;;;;;;6.64;nan;-24002.44;4991666;28;20184;-74
2022/03/07 10:53:18;;;;;;;31.70;16.70;;;;;;;6.66;nan;-24003.00;4992112;28;20226;-75
2022/03/07 10:55:55;;;;;;;31.17;16.90;;;;;;;6.00;nan;-23984.28;4992950;28;20227;-74
2022/03/07 10:58:21;;;;;;;33.13;17.67;;;;;;;6.04;nan;-23985.56;4992743;28;20180;-74
2022/03/07 11:00:47;;;;;;;36.10;18.47;;;;;;;6.55;nan;-23999.75;4992630;28;20177;-73
2022/03/07 11:03:18;;;;;;;31.97;17.63;;;;;;;6.64;nan;-24002.44;5023883;28;20683;-75
2022/03/07 11:05:44;;;;;;;34.07;17.67;;;;;;;6.64;nan;-24002.44;4993107;28;20177;-74
2022/03/07 11:08:09;;;;;;;35.27;18.03;;;;;;;6.77;nan;-24006.00;5024339;28;20617;-76
2022/03/07 11:10:36;;;;;;;34.13;16.77;;;;;;;6.52;nan;-23999.03;4991329;28;20231;-74
2022/03/07 11:13:02;;;;;;;30.73;17.10;;;;;;;6.65;nan;-24002.72;4993065;28;20165;-74
2022/03/07 11:15:28;;;;;;;28.53;17.40;;;;;;;7.00;nan;-24012.53;4992651;28;20560;-77
2022/03/07 11:17:54;;;;;;;35.17;18.33;;;;;;;7.12;nan;-24015.66;4992715;28;20197;-74
2022/03/07 11:20:20;;;;;;;33.23;19.57;;;;;;;6.88;nan;-24009.13;4992683;28;20252;-76
2022/03/07 11:22:45;;;;;;;35.63;17.00;;;;;;;7.29;nan;-24020.59;4992424;28;20540;-73
2022/03/07 11:25:15;;;;;;;35.80;19.00;;;;;;;7.19;nan;-24017.63;4992327;28;20760;-75
2022/03/07 11:27:42;;;;;;;36.57;20.17;;;;;;;7.22;nan;-24018.47;4991532;28;20698;-75
2022/03/07 11:30:19;;;;;;;32.67;16.67;;;;;;;7.19;nan;-24017.78;4991843;28;20180;-75